sensor_id;sensor_type;location;lat;lon;timestamp;P1;durP1;ratioP1;P2;durP2;ratioP2
52512;SDS011;38422;53.172;6.974;2023-07-28T00:01:47;9.50;;;6.40;;
52512;SDS011;38422;53.172;6.974;2023-07-28T00:04:12;15.70;;;6.90;;
52512;SDS011;38422;53.172;6.974;2023-07-28T00:06:38;12.07;;;6.60;;
52512;SDS011;38422;53.172;6.974;2023-07-28T00:09:04;13.23;;;7.45;;
52512;SDS011;38422;53.172;6.974;2023-07-28T00:11:29;11.68;;;7.03;;
52512;SDS011;38422;53.172;6.974;2023-07-28T00:13:55;14.63;;;8.07;;
52512;SDS011;38422;53.172;6.974;2023-07-28T00:16:20;15.10;;;8.23;;
52512;SDS011;38422;53.172;6.974;2023-07-28T00:18:46;17.52;;;8.43;;
52512;SDS011;38422;53.172;6.974;2023-07-28T00:21:12;16.98;;;9.02;;
52512;SDS011;38422;53.172;6.974;2023-07-28T00:23:38;19.27;;;8.48;;
52512;SDS011;38422;53.172;6.974;2023-07-28T00:26:03;16.98;;;9.50;;
52512;SDS011;38422;53.172;6.974;2023-07-28T00:28:29;20.30;;;9.13;;
52512;SDS011;38422;53.172;6.974;2023-07-28T00:30:55;17.73;;;9.40;;
52512;SDS011;38422;53.172;6.974;2023-07-28T00:33:20;17.98;;;9.30;;
52512;SDS011;38422;53.172;6.974;2023-07-28T00:35:46;21.42;;;10.13;;
52512;SDS011;38422;53.172;6.974;2023-07-28T00:38:12;22.67;;;10.00;;
52512;SDS011;38422;53.172;6.974;2023-07-28T00:40:37;20.23;;;10.27;;
52512;SDS011;38422;53.172;6.974;2023-07-28T00:43:03;19.65;;;10.18;;
52512;SDS011;38422;53.172;6.974;2023-07-28T00:45:29;18.75;;;9.60;;
52512;SDS011;38422;53.172;6.974;2023-07-28T00:47:57;17.98;;;9.63;;
52512;SDS011;38422;53.172;6.974;2023-07-28T00:50:23;16.42;;;8.73;;
52512;SDS011;38422;53.172;6.974;2023-07-28T00:52:50;18.27;;;9.25;;
52512;SDS011;38422;53.172;6.974;2023-07-28T00:55:16;16.63;;;8.45;;
52512;SDS011;38422;53.172;6.974;2023-07-28T00:57:42;18.05;;;9.18;;
52512;SDS011;38422;53.172;6.974;2023-07-28T01:00:09;15.27;;;8.23;;
52512;SDS011;38422;53.172;6.974;2023-07-28T01:02:35;18.55;;;8.88;;
52512;SDS011;38422;53.172;6.974;2023-07-28T01:05:02;18.15;;;8.48;;
52512;SDS011;38422;53.172;6.974;2023-07-28T01:07:37;16.87;;;8.23;;
52512;SDS011;38422;53.172;6.974;2023-07-28T01:10:22;15.43;;;8.07;;
52512;SDS011;38422;53.172;6.974;2023-07-28T01:12:53;17.35;;;9.00;;
52512;SDS011;38422;53.172;6.974;2023-07-28T01:15:19;15.57;;;8.05;;
52512;SDS011;38422;53.172;6.974;2023-07-28T01:17:45;16.50;;;8.32;;
52512;SDS011;38422;53.172;6.974;2023-07-28T01:20:11;15.45;;;8.57;;
52512;SDS011;38422;53.172;6.974;2023-07-28T01:30:27;18.25;;;9.13;;
52512;SDS011;38422;53.172;6.974;2023-07-28T01:32:54;19.42;;;9.80;;
52512;SDS011;38422;53.172;6.974;2023-07-28T01:35:21;16.00;;;9.70;;
52512;SDS011;38422;53.172;6.974;2023-07-28T01:37:47;17.40;;;8.87;;
52512;SDS011;38422;53.172;6.974;2023-07-28T01:40:19;15.90;;;9.18;;
52512;SDS011;38422;53.172;6.974;2023-07-28T01:42:45;18.90;;;9.35;;
52512;SDS011;38422;53.172;6.974;2023-07-28T01:45:11;17.13;;;9.63;;
52512;SDS011;38422;53.172;6.974;2023-07-28T01:47:37;17.65;;;10.05;;
52512;SDS011;38422;53.172;6.974;2023-07-28T01:50:03;19.52;;;10.10;;
52512;SDS011;38422;53.172;6.974;2023-07-28T01:52:32;16.27;;;10.13;;
52512;SDS011;38422;53.172;6.974;2023-07-28T01:54:57;19.23;;;10.65;;
52512;SDS011;38422;53.172;6.974;2023-07-28T01:57:23;20.25;;;10.48;;
52512;SDS011;38422;53.172;6.974;2023-07-28T01:59:52;16.92;;;10.98;;
52512;SDS011;38422;53.172;6.974;2023-07-28T02:02:18;17.42;;;10.25;;
52512;SDS011;38422;53.172;6.974;2023-07-28T02:04:44;22.50;;;11.68;;
52512;SDS011;38422;53.172;6.974;2023-07-28T02:07:10;24.73;;;11.93;;
52512;SDS011;38422;53.172;6.974;2023-07-28T02:09:36;23.20;;;11.55;;
52512;SDS011;38422;53.172;6.974;2023-07-28T02:12:01;23.10;;;11.35;;
52512;SDS011;38422;53.172;6.974;2023-07-28T02:14:27;21.48;;;12.10;;
52512;SDS011;38422;53.172;6.974;2023-07-28T02:16:53;23.05;;;12.27;;
52512;SDS011;38422;53.172;6.974;2023-07-28T02:19:18;21.67;;;11.77;;
52512;SDS011;38422;53.172;6.974;2023-07-28T02:21:44;21.02;;;10.98;;
52512;SDS011;38422;53.172;6.974;2023-07-28T02:24:10;17.98;;;10.38;;
52512;SDS011;38422;53.172;6.974;2023-07-28T02:26:35;18.35;;;10.75;;
52512;SDS011;38422;53.172;6.974;2023-07-28T02:29:01;18.35;;;10.50;;
52512;SDS011;38422;53.172;6.974;2023-07-28T02:31:27;20.55;;;10.70;;
52512;SDS011;38422;53.172;6.974;2023-07-28T02:33:52;17.92;;;9.70;;
52512;SDS011;38422;53.172;6.974;2023-07-28T02:36:18;16.35;;;9.70;;
52512;SDS011;38422;53.172;6.974;2023-07-28T02:38:44;18.52;;;10.10;;
52512;SDS011;38422;53.172;6.974;2023-07-28T02:41:10;15.85;;;9.55;;
52512;SDS011;38422;53.172;6.974;2023-07-28T02:46:04;18.13;;;10.80;;
52512;SDS011;38422;53.172;6.974;2023-07-28T02:48:30;16.92;;;10.15;;
52512;SDS011;38422;53.172;6.974;2023-07-28T02:50:56;16.70;;;10.10;;
52512;SDS011;38422;53.172;6.974;2023-07-28T02:53:21;20.90;;;11.15;;
52512;SDS011;38422;53.172;6.974;2023-07-28T02:55:47;16.15;;;9.88;;
52512;SDS011;38422;53.172;6.974;2023-07-28T02:58:13;15.73;;;10.00;;
52512;SDS011;38422;53.172;6.974;2023-07-28T03:00:40;12.88;;;9.23;;
52512;SDS011;38422;53.172;6.974;2023-07-28T03:03:07;12.48;;;8.77;;
52512;SDS011;38422;53.172;6.974;2023-07-28T03:05:33;13.23;;;8.70;;
52512;SDS011;38422;53.172;6.974;2023-07-28T03:07:58;13.85;;;9.35;;
52512;SDS011;38422;53.172;6.974;2023-07-28T03:10:24;17.65;;;9.95;;
52512;SDS011;38422;53.172;6.974;2023-07-28T03:12:53;14.45;;;9.65;;
52512;SDS011;38422;53.172;6.974;2023-07-28T03:15:18;19.52;;;10.90;;
52512;SDS011;38422;53.172;6.974;2023-07-28T03:17:47;19.35;;;11.55;;
52512;SDS011;38422;53.172;6.974;2023-07-28T03:20:13;19.75;;;11.40;;
52512;SDS011;38422;53.172;6.974;2023-07-28T03:22:39;21.38;;;11.70;;
52512;SDS011;38422;53.172;6.974;2023-07-28T03:25:04;20.17;;;11.63;;
52512;SDS011;38422;53.172;6.974;2023-07-28T03:27:30;20.17;;;11.68;;
52512;SDS011;38422;53.172;6.974;2023-07-28T03:29:56;20.20;;;11.25;;
52512;SDS011;38422;53.172;6.974;2023-07-28T03:32:21;19.63;;;11.73;;
52512;SDS011;38422;53.172;6.974;2023-07-28T03:34:47;21.45;;;11.95;;
52512;SDS011;38422;53.172;6.974;2023-07-28T03:37:13;25.10;;;12.07;;
52512;SDS011;38422;53.172;6.974;2023-07-28T03:39:38;18.58;;;11.73;;
52512;SDS011;38422;53.172;6.974;2023-07-28T03:42:04;23.58;;;12.50;;
52512;SDS011;38422;53.172;6.974;2023-07-28T03:44:30;22.25;;;12.00;;
52512;SDS011;38422;53.172;6.974;2023-07-28T03:46:56;20.20;;;11.77;;
52512;SDS011;38422;53.172;6.974;2023-07-28T03:49:22;22.48;;;11.80;;
52512;SDS011;38422;53.172;6.974;2023-07-28T03:51:50;23.27;;;12.18;;
52512;SDS011;38422;53.172;6.974;2023-07-28T03:54:16;22.70;;;12.38;;
52512;SDS011;38422;53.172;6.974;2023-07-28T03:56:41;21.98;;;12.20;;
52512;SDS011;38422;53.172;6.974;2023-07-28T03:59:07;21.13;;;11.18;;
52512;SDS011;38422;53.172;6.974;2023-07-28T04:01:33;22.38;;;11.70;;
52512;SDS011;38422;53.172;6.974;2023-07-28T04:03:58;23.33;;;11.60;;
52512;SDS011;38422;53.172;6.974;2023-07-28T04:06:48;23.98;;;11.30;;
52512;SDS011;38422;53.172;6.974;2023-07-28T04:09:18;21.67;;;11.30;;
52512;SDS011;38422;53.172;6.974;2023-07-28T04:11:45;18.85;;;11.32;;
52512;SDS011;38422;53.172;6.974;2023-07-28T04:14:11;20.05;;;11.23;;
52512;SDS011;38422;53.172;6.974;2023-07-28T04:16:37;21.52;;;10.77;;
52512;SDS011;38422;53.172;6.974;2023-07-28T04:19:02;21.85;;;10.98;;
52512;SDS011;38422;53.172;6.974;2023-07-28T04:21:28;18.20;;;10.07;;
52512;SDS011;38422;53.172;6.974;2023-07-28T04:23:54;20.35;;;10.82;;
52512;SDS011;38422;53.172;6.974;2023-07-28T04:26:20;20.92;;;10.88;;
52512;SDS011;38422;53.172;6.974;2023-07-28T04:28:45;21.58;;;10.48;;
52512;SDS011;38422;53.172;6.974;2023-07-28T04:31:11;22.95;;;10.80;;
52512;SDS011;38422;53.172;6.974;2023-07-28T04:33:40;21.98;;;10.25;;
52512;SDS011;38422;53.172;6.974;2023-07-28T04:36:07;20.58;;;9.80;;
52512;SDS011;38422;53.172;6.974;2023-07-28T04:38:33;21.75;;;10.02;;
52512;SDS011;38422;53.172;6.974;2023-07-28T04:40:59;19.38;;;9.77;;
52512;SDS011;38422;53.172;6.974;2023-07-28T04:43:25;18.75;;;9.13;;
52512;SDS011;38422;53.172;6.974;2023-07-28T04:45:51;19.77;;;9.10;;
52512;SDS011;38422;53.172;6.974;2023-07-28T04:48:16;16.00;;;9.05;;
52512;SDS011;38422;53.172;6.974;2023-07-28T04:50:42;15.30;;;8.88;;
52512;SDS011;38422;53.172;6.974;2023-07-28T04:53:09;17.50;;;9.07;;
52512;SDS011;38422;53.172;6.974;2023-07-28T04:55:34;18.20;;;8.60;;
52512;SDS011;38422;53.172;6.974;2023-07-28T04:58:00;17.58;;;8.68;;
52512;SDS011;38422;53.172;6.974;2023-07-28T05:00:26;18.33;;;9.00;;
52512;SDS011;38422;53.172;6.974;2023-07-28T05:02:54;20.63;;;9.07;;
52512;SDS011;38422;53.172;6.974;2023-07-28T05:05:20;17.98;;;8.02;;
52512;SDS011;38422;53.172;6.974;2023-07-28T05:07:45;19.65;;;9.18;;
52512;SDS011;38422;53.172;6.974;2023-07-28T05:10:11;16.88;;;8.23;;
52512;SDS011;38422;53.172;6.974;2023-07-28T05:12:37;17.77;;;8.87;;
52512;SDS011;38422;53.172;6.974;2023-07-28T05:15:04;20.98;;;8.60;;
52512;SDS011;38422;53.172;6.974;2023-07-28T05:17:35;15.25;;;8.07;;
52512;SDS011;38422;53.172;6.974;2023-07-28T05:20:01;15.13;;;8.10;;
52512;SDS011;38422;53.172;6.974;2023-07-28T05:22:27;14.25;;;7.22;;
52512;SDS011;38422;53.172;6.974;2023-07-28T05:24:53;16.08;;;7.88;;
52512;SDS011;38422;53.172;6.974;2023-07-28T05:27:19;16.33;;;7.78;;
52512;SDS011;38422;53.172;6.974;2023-07-28T05:29:47;15.77;;;7.35;;
52512;SDS011;38422;53.172;6.974;2023-07-28T05:32:12;14.52;;;7.50;;
52512;SDS011;38422;53.172;6.974;2023-07-28T05:34:41;18.58;;;6.93;;
52512;SDS011;38422;53.172;6.974;2023-07-28T05:37:07;13.15;;;6.43;;
52512;SDS011;38422;53.172;6.974;2023-07-28T05:39:33;17.05;;;7.05;;
52512;SDS011;38422;53.172;6.974;2023-07-28T05:41:59;15.52;;;7.38;;
52512;SDS011;38422;53.172;6.974;2023-07-28T05:44:25;14.77;;;6.82;;
52512;SDS011;38422;53.172;6.974;2023-07-28T05:46:50;12.98;;;6.20;;
52512;SDS011;38422;53.172;6.974;2023-07-28T05:49:16;13.20;;;5.85;;
52512;SDS011;38422;53.172;6.974;2023-07-28T05:51:42;12.45;;;5.97;;
52512;SDS011;38422;53.172;6.974;2023-07-28T05:54:07;15.43;;;5.53;;
52512;SDS011;38422;53.172;6.974;2023-07-28T05:56:33;12.32;;;6.10;;
52512;SDS011;38422;53.172;6.974;2023-07-28T05:58:59;14.68;;;6.28;;
52512;SDS011;38422;53.172;6.974;2023-07-28T06:01:28;11.70;;;5.50;;
52512;SDS011;38422;53.172;6.974;2023-07-28T06:03:53;13.13;;;5.68;;
52512;SDS011;38422;53.172;6.974;2023-07-28T06:06:24;13.45;;;5.50;;
52512;SDS011;38422;53.172;6.974;2023-07-28T06:08:50;10.35;;;5.28;;
52512;SDS011;38422;53.172;6.974;2023-07-28T06:11:16;9.13;;;4.90;;
52512;SDS011;38422;53.172;6.974;2023-07-28T06:13:41;12.63;;;5.30;;
52512;SDS011;38422;53.172;6.974;2023-07-28T06:16:07;11.50;;;5.53;;
52512;SDS011;38422;53.172;6.974;2023-07-28T06:18:33;12.10;;;5.88;;
52512;SDS011;38422;53.172;6.974;2023-07-28T06:20:58;10.60;;;5.85;;
52512;SDS011;38422;53.172;6.974;2023-07-28T06:23:24;12.70;;;6.18;;
52512;SDS011;38422;53.172;6.974;2023-07-28T06:25:50;11.02;;;6.20;;
52512;SDS011;38422;53.172;6.974;2023-07-28T06:28:16;14.15;;;6.40;;
52512;SDS011;38422;53.172;6.974;2023-07-28T06:30:41;11.77;;;6.03;;
52512;SDS011;38422;53.172;6.974;2023-07-28T06:33:10;10.60;;;5.60;;
52512;SDS011;38422;53.172;6.974;2023-07-28T06:35:36;14.27;;;6.45;;
52512;SDS011;38422;53.172;6.974;2023-07-28T06:38:02;9.52;;;5.55;;
52512;SDS011;38422;53.172;6.974;2023-07-28T06:40:27;10.77;;;6.30;;
52512;SDS011;38422;53.172;6.974;2023-07-28T06:42:53;14.15;;;6.18;;
52512;SDS011;38422;53.172;6.974;2023-07-28T06:45:19;11.10;;;6.10;;
52512;SDS011;38422;53.172;6.974;2023-07-28T06:47:45;12.85;;;5.90;;
52512;SDS011;38422;53.172;6.974;2023-07-28T06:50:11;9.65;;;5.22;;
52512;SDS011;38422;53.172;6.974;2023-07-28T06:52:37;12.93;;;5.60;;
52512;SDS011;38422;53.172;6.974;2023-07-28T06:55:03;6.05;;;4.63;;
52512;SDS011;38422;53.172;6.974;2023-07-28T06:57:29;9.33;;;5.00;;
52512;SDS011;38422;53.172;6.974;2023-07-28T06:59:56;9.65;;;5.15;;
52512;SDS011;38422;53.172;6.974;2023-07-28T07:02:22;9.07;;;3.92;;
52512;SDS011;38422;53.172;6.974;2023-07-28T07:04:48;8.55;;;4.10;;
52512;SDS011;38422;53.172;6.974;2023-07-28T07:07:13;7.85;;;4.03;;
52512;SDS011;38422;53.172;6.974;2023-07-28T07:09:39;6.32;;;3.80;;
52512;SDS011;38422;53.172;6.974;2023-07-28T07:12:07;8.65;;;4.53;;
52512;SDS011;38422;53.172;6.974;2023-07-28T07:14:42;9.05;;;4.30;;
52512;SDS011;38422;53.172;6.974;2023-07-28T07:17:08;11.00;;;4.30;;
52512;SDS011;38422;53.172;6.974;2023-07-28T07:19:33;8.23;;;4.10;;
52512;SDS011;38422;53.172;6.974;2023-07-28T07:21:59;6.75;;;3.80;;
52512;SDS011;38422;53.172;6.974;2023-07-28T07:24:25;5.53;;;3.80;;
52512;SDS011;38422;53.172;6.974;2023-07-28T07:26:51;5.72;;;4.05;;
52512;SDS011;38422;53.172;6.974;2023-07-28T07:29:17;8.13;;;4.07;;
52512;SDS011;38422;53.172;6.974;2023-07-28T07:31:42;6.25;;;3.50;;
52512;SDS011;38422;53.172;6.974;2023-07-28T07:34:08;8.00;;;3.88;;
52512;SDS011;38422;53.172;6.974;2023-07-28T07:36:34;5.38;;;3.53;;
52512;SDS011;38422;53.172;6.974;2023-07-28T07:39:00;7.30;;;3.65;;
52512;SDS011;38422;53.172;6.974;2023-07-28T07:41:25;6.05;;;3.30;;
52512;SDS011;38422;53.172;6.974;2023-07-28T07:43:52;4.43;;;2.92;;
52512;SDS011;38422;53.172;6.974;2023-07-28T07:46:19;5.97;;;3.47;;
52512;SDS011;38422;53.172;6.974;2023-07-28T07:48:45;6.32;;;3.33;;
52512;SDS011;38422;53.172;6.974;2023-07-28T07:51:11;6.83;;;3.80;;
52512;SDS011;38422;53.172;6.974;2023-07-28T07:53:37;4.50;;;3.50;;
52512;SDS011;38422;53.172;6.974;2023-07-28T07:56:03;4.03;;;3.05;;
52512;SDS011;38422;53.172;6.974;2023-07-28T07:58:29;6.07;;;3.10;;
52512;SDS011;38422;53.172;6.974;2023-07-28T08:00:55;5.10;;;2.90;;
52512;SDS011;38422;53.172;6.974;2023-07-28T08:03:21;6.32;;;2.78;;
52512;SDS011;38422;53.172;6.974;2023-07-28T08:05:47;4.38;;;2.60;;
52512;SDS011;38422;53.172;6.974;2023-07-28T08:08:13;4.13;;;2.45;;
52512;SDS011;38422;53.172;6.974;2023-07-28T08:10:45;3.47;;;2.58;;
52512;SDS011;38422;53.172;6.974;2023-07-28T08:13:12;4.47;;;3.00;;
52512;SDS011;38422;53.172;6.974;2023-07-28T08:15:38;5.47;;;2.80;;
52512;SDS011;38422;53.172;6.974;2023-07-28T08:18:04;5.32;;;2.55;;
52512;SDS011;38422;53.172;6.974;2023-07-28T08:20:29;4.28;;;2.78;;
52512;SDS011;38422;53.172;6.974;2023-07-28T08:22:55;3.92;;;2.58;;
52512;SDS011;38422;53.172;6.974;2023-07-28T08:25:21;4.65;;;2.20;;
52512;SDS011;38422;53.172;6.974;2023-07-28T08:27:49;4.25;;;2.42;;
52512;SDS011;38422;53.172;6.974;2023-07-28T08:30:14;5.40;;;2.50;;
52512;SDS011;38422;53.172;6.974;2023-07-28T08:32:41;6.85;;;2.30;;
52512;SDS011;38422;53.172;6.974;2023-07-28T08:35:08;3.67;;;2.60;;
52512;SDS011;38422;53.172;6.974;2023-07-28T08:37:34;3.80;;;2.57;;
52512;SDS011;38422;53.172;6.974;2023-07-28T08:39:59;6.65;;;2.50;;
52512;SDS011;38422;53.172;6.974;2023-07-28T08:42:25;3.45;;;2.10;;
52512;SDS011;38422;53.172;6.974;2023-07-28T08:44:54;3.88;;;2.10;;
52512;SDS011;38422;53.172;6.974;2023-07-28T08:47:19;2.83;;;2.05;;
52512;SDS011;38422;53.172;6.974;2023-07-28T08:49:46;4.75;;;2.10;;
52512;SDS011;38422;53.172;6.974;2023-07-28T08:52:15;4.93;;;2.80;;
52512;SDS011;38422;53.172;6.974;2023-07-28T08:54:42;3.33;;;2.40;;
52512;SDS011;38422;53.172;6.974;2023-07-28T08:57:08;3.67;;;2.55;;
52512;SDS011;38422;53.172;6.974;2023-07-28T08:59:35;3.55;;;2.28;;
52512;SDS011;38422;53.172;6.974;2023-07-28T09:02:01;3.50;;;2.03;;
52512;SDS011;38422;53.172;6.974;2023-07-28T09:04:27;3.85;;;2.20;;
52512;SDS011;38422;53.172;6.974;2023-07-28T09:06:53;3.33;;;2.22;;
52512;SDS011;38422;53.172;6.974;2023-07-28T09:09:20;3.08;;;1.90;;
52512;SDS011;38422;53.172;6.974;2023-07-28T09:11:48;3.78;;;2.30;;
52512;SDS011;38422;53.172;6.974;2023-07-28T09:14:19;2.45;;;2.10;;
52512;SDS011;38422;53.172;6.974;2023-07-28T09:16:46;3.22;;;2.00;;
52512;SDS011;38422;53.172;6.974;2023-07-28T09:19:12;2.35;;;1.83;;
52512;SDS011;38422;53.172;6.974;2023-07-28T09:21:39;3.30;;;1.88;;
52512;SDS011;38422;53.172;6.974;2023-07-28T09:24:09;2.30;;;1.80;;
52512;SDS011;38422;53.172;6.974;2023-07-28T09:26:47;2.72;;;1.65;;
52512;SDS011;38422;53.172;6.974;2023-07-28T09:29:16;4.53;;;1.88;;
52512;SDS011;38422;53.172;6.974;2023-07-28T09:31:43;2.88;;;1.60;;
52512;SDS011;38422;53.172;6.974;2023-07-28T09:34:10;2.78;;;1.77;;
52512;SDS011;38422;53.172;6.974;2023-07-28T09:36:37;1.70;;;1.45;;
52512;SDS011;38422;53.172;6.974;2023-07-28T09:39:04;2.90;;;1.75;;
52512;SDS011;38422;53.172;6.974;2023-07-28T09:41:36;3.38;;;1.50;;
52512;SDS011;38422;53.172;6.974;2023-07-28T09:44:03;2.28;;;1.30;;
52512;SDS011;38422;53.172;6.974;2023-07-28T09:46:30;2.47;;;1.67;;
52512;SDS011;38422;53.172;6.974;2023-07-28T09:48:59;3.35;;;1.50;;
52512;SDS011;38422;53.172;6.974;2023-07-28T09:51:34;1.90;;;1.67;;
52512;SDS011;38422;53.172;6.974;2023-07-28T09:54:05;4.28;;;1.40;;
52512;SDS011;38422;53.172;6.974;2023-07-28T09:56:37;3.78;;;1.65;;
52512;SDS011;38422;53.172;6.974;2023-07-28T09:59:06;2.95;;;1.55;;
52512;SDS011;38422;53.172;6.974;2023-07-28T10:01:39;4.25;;;1.40;;
52512;SDS011;38422;53.172;6.974;2023-07-28T10:04:08;2.88;;;1.50;;
52512;SDS011;38422;53.172;6.974;2023-07-28T10:06:34;2.65;;;1.50;;
52512;SDS011;38422;53.172;6.974;2023-07-28T10:09:00;3.10;;;1.50;;
52512;SDS011;38422;53.172;6.974;2023-07-28T10:11:26;3.00;;;1.33;;
52512;SDS011;38422;53.172;6.974;2023-07-28T10:13:54;5.78;;;1.38;;
52512;SDS011;38422;53.172;6.974;2023-07-28T10:16:28;2.75;;;1.40;;
52512;SDS011;38422;53.172;6.974;2023-07-28T10:18:56;2.15;;;1.30;;
52512;SDS011;38422;53.172;6.974;2023-07-28T10:21:26;1.55;;;1.30;;
52512;SDS011;38422;53.172;6.974;2023-07-28T10:23:55;1.60;;;1.05;;
52512;SDS011;38422;53.172;6.974;2023-07-28T10:26:40;3.85;;;1.58;;
52512;SDS011;38422;53.172;6.974;2023-07-28T10:29:15;2.15;;;1.33;;
52512;SDS011;38422;53.172;6.974;2023-07-28T10:34:17;3.35;;;1.50;;
52512;SDS011;38422;53.172;6.974;2023-07-28T10:36:43;2.25;;;1.38;;
52512;SDS011;38422;53.172;6.974;2023-07-28T10:39:17;1.55;;;1.40;;
52512;SDS011;38422;53.172;6.974;2023-07-28T10:44:26;2.67;;;1.60;;
52512;SDS011;38422;53.172;6.974;2023-07-28T10:46:52;2.88;;;1.50;;
52512;SDS011;38422;53.172;6.974;2023-07-28T10:49:19;2.75;;;1.90;;
52512;SDS011;38422;53.172;6.974;2023-07-28T10:51:45;3.25;;;1.60;;
52512;SDS011;38422;53.172;6.974;2023-07-28T10:54:11;3.05;;;1.40;;
52512;SDS011;38422;53.172;6.974;2023-07-28T10:56:41;2.97;;;1.38;;
52512;SDS011;38422;53.172;6.974;2023-07-28T10:59:07;3.55;;;1.30;;
52512;SDS011;38422;53.172;6.974;2023-07-28T11:04:33;3.35;;;1.10;;
52512;SDS011;38422;53.172;6.974;2023-07-28T11:06:51;2.05;;;1.13;;
52512;SDS011;38422;53.172;6.974;2023-07-28T11:09:21;2.47;;;1.20;;
52512;SDS011;38422;53.172;6.974;2023-07-28T11:11:49;3.85;;;1.15;;
52512;SDS011;38422;53.172;6.974;2023-07-28T11:14:16;3.25;;;1.30;;
52512;SDS011;38422;53.172;6.974;2023-07-28T11:16:42;2.58;;;1.05;;
52512;SDS011;38422;53.172;6.974;2023-07-28T11:19:10;2.35;;;1.27;;
52512;SDS011;38422;53.172;6.974;2023-07-28T11:21:40;3.17;;;1.13;;
52512;SDS011;38422;53.172;6.974;2023-07-28T11:24:07;2.25;;;1.10;;
52512;SDS011;38422;53.172;6.974;2023-07-28T11:26:37;3.83;;;1.20;;
52512;SDS011;38422;53.172;6.974;2023-07-28T11:29:04;3.22;;;1.10;;
52512;SDS011;38422;53.172;6.974;2023-07-28T11:31:30;3.07;;;1.30;;
52512;SDS011;38422;53.172;6.974;2023-07-28T11:33:55;3.90;;;1.47;;
52512;SDS011;38422;53.172;6.974;2023-07-28T11:36:22;1.60;;;0.90;;
52512;SDS011;38422;53.172;6.974;2023-07-28T11:38:49;2.40;;;1.20;;
52512;SDS011;38422;53.172;6.974;2023-07-28T11:41:16;5.47;;;1.30;;
52512;SDS011;38422;53.172;6.974;2023-07-28T11:43:43;2.35;;;1.20;;
52512;SDS011;38422;53.172;6.974;2023-07-28T11:51:41;3.30;;;1.40;;
52512;SDS011;38422;53.172;6.974;2023-07-28T11:54:15;3.13;;;1.17;;
52512;SDS011;38422;53.172;6.974;2023-07-28T11:56:47;2.28;;;1.20;;
52512;SDS011;38422;53.172;6.974;2023-07-28T11:59:17;2.20;;;1.17;;
52512;SDS011;38422;53.172;6.974;2023-07-28T12:02:00;3.30;;;1.00;;
52512;SDS011;38422;53.172;6.974;2023-07-28T12:04:35;2.60;;;1.15;;
52512;SDS011;38422;53.172;6.974;2023-07-28T12:07:06;2.38;;;1.00;;
52512;SDS011;38422;53.172;6.974;2023-07-28T12:12:24;1.27;;;0.70;;
52512;SDS011;38422;53.172;6.974;2023-07-28T12:14:57;2.85;;;1.00;;
52512;SDS011;38422;53.172;6.974;2023-07-28T12:17:30;2.40;;;0.90;;
52512;SDS011;38422;53.172;6.974;2023-07-28T12:22:29;3.67;;;1.17;;
52512;SDS011;38422;53.172;6.974;2023-07-28T12:24:55;2.08;;;0.90;;
52512;SDS011;38422;53.172;6.974;2023-07-28T12:27:21;1.80;;;1.00;;
52512;SDS011;38422;53.172;6.974;2023-07-28T12:29:50;1.45;;;0.75;;
52512;SDS011;38422;53.172;6.974;2023-07-28T12:32:16;1.98;;;0.80;;
52512;SDS011;38422;53.172;6.974;2023-07-28T12:34:42;2.42;;;0.80;;
52512;SDS011;38422;53.172;6.974;2023-07-28T12:37:10;3.13;;;0.80;;
52512;SDS011;38422;53.172;6.974;2023-07-28T12:39:36;2.60;;;0.80;;
52512;SDS011;38422;53.172;6.974;2023-07-28T12:42:06;1.42;;;0.80;;
52512;SDS011;38422;53.172;6.974;2023-07-28T12:44:34;1.85;;;1.00;;
52512;SDS011;38422;53.172;6.974;2023-07-28T12:47:00;2.40;;;0.80;;
52512;SDS011;38422;53.172;6.974;2023-07-28T12:49:26;1.58;;;0.80;;
52512;SDS011;38422;53.172;6.974;2023-07-28T12:51:54;2.72;;;0.88;;
52512;SDS011;38422;53.172;6.974;2023-07-28T12:54:23;1.63;;;1.08;;
52512;SDS011;38422;53.172;6.974;2023-07-28T12:56:50;1.83;;;0.80;;
52512;SDS011;38422;53.172;6.974;2023-07-28T13:01:42;3.10;;;0.93;;
52512;SDS011;38422;53.172;6.974;2023-07-28T13:04:08;1.80;;;0.90;;
52512;SDS011;38422;53.172;6.974;2023-07-28T13:06:34;2.03;;;0.90;;
52512;SDS011;38422;53.172;6.974;2023-07-28T13:09:01;2.55;;;1.20;;
52512;SDS011;38422;53.172;6.974;2023-07-28T13:11:28;3.00;;;1.15;;
52512;SDS011;38422;53.172;6.974;2023-07-28T13:13:54;2.92;;;0.90;;
52512;SDS011;38422;53.172;6.974;2023-07-28T13:16:20;2.53;;;0.90;;
52512;SDS011;38422;53.172;6.974;2023-07-28T13:18:46;1.55;;;1.00;;
52512;SDS011;38422;53.172;6.974;2023-07-28T13:21:12;1.48;;;0.80;;
52512;SDS011;38422;53.172;6.974;2023-07-28T13:23:38;1.70;;;0.70;;
52512;SDS011;38422;53.172;6.974;2023-07-28T13:26:05;0.80;;;0.60;;
52512;SDS011;38422;53.172;6.974;2023-07-28T13:28:31;1.05;;;0.50;;
52512;SDS011;38422;53.172;6.974;2023-07-28T13:33:23;1.23;;;0.60;;
52512;SDS011;38422;53.172;6.974;2023-07-28T13:35:49;0.70;;;0.50;;
52512;SDS011;38422;53.172;6.974;2023-07-28T13:38:15;3.78;;;0.60;;
52512;SDS011;38422;53.172;6.974;2023-07-28T13:40:41;0.93;;;0.70;;
52512;SDS011;38422;53.172;6.974;2023-07-28T13:43:06;3.50;;;1.43;;
52512;SDS011;38422;53.172;6.974;2023-07-28T13:45:32;2.63;;;0.70;;
52512;SDS011;38422;53.172;6.974;2023-07-28T13:47:58;1.63;;;0.73;;
52512;SDS011;38422;53.172;6.974;2023-07-28T13:50:23;2.83;;;0.60;;
52512;SDS011;38422;53.172;6.974;2023-07-28T13:52:49;2.13;;;0.70;;
52512;SDS011;38422;53.172;6.974;2023-07-28T13:55:15;1.97;;;0.77;;
52512;SDS011;38422;53.172;6.974;2023-07-28T13:57:40;0.70;;;0.70;;
52512;SDS011;38422;53.172;6.974;2023-07-28T14:00:06;1.92;;;0.70;;
52512;SDS011;38422;53.172;6.974;2023-07-28T14:02:37;3.33;;;0.80;;
52512;SDS011;38422;53.172;6.974;2023-07-28T14:05:03;1.00;;;0.80;;
52512;SDS011;38422;53.172;6.974;2023-07-28T14:07:30;0.47;;;0.47;;
52512;SDS011;38422;53.172;6.974;2023-07-28T14:09:56;0.80;;;0.68;;
52512;SDS011;38422;53.172;6.974;2023-07-28T14:12:22;1.37;;;0.60;;
52512;SDS011;38422;53.172;6.974;2023-07-28T14:14:48;2.43;;;0.70;;
52512;SDS011;38422;53.172;6.974;2023-07-28T14:17:15;1.80;;;0.70;;
52512;SDS011;38422;53.172;6.974;2023-07-28T14:19:41;0.65;;;0.55;;
52512;SDS011;38422;53.172;6.974;2023-07-28T14:22:07;1.40;;;0.80;;
52512;SDS011;38422;53.172;6.974;2023-07-28T14:26:59;1.48;;;0.70;;
52512;SDS011;38422;53.172;6.974;2023-07-28T14:29:25;1.43;;;0.57;;
52512;SDS011;38422;53.172;6.974;2023-07-28T14:31:51;2.05;;;0.70;;
52512;SDS011;38422;53.172;6.974;2023-07-28T14:34:17;0.82;;;0.70;;
52512;SDS011;38422;53.172;6.974;2023-07-28T14:36:43;0.80;;;0.70;;
52512;SDS011;38422;53.172;6.974;2023-07-28T14:39:09;0.80;;;0.60;;
52512;SDS011;38422;53.172;6.974;2023-07-28T14:41:35;1.17;;;0.80;;
52512;SDS011;38422;53.172;6.974;2023-07-28T14:44:01;1.63;;;1.13;;
52512;SDS011;38422;53.172;6.974;2023-07-28T14:46:26;1.33;;;0.80;;
52512;SDS011;38422;53.172;6.974;2023-07-28T14:48:53;2.03;;;0.90;;
52512;SDS011;38422;53.172;6.974;2023-07-28T14:53:45;1.15;;;0.88;;
52512;SDS011;38422;53.172;6.974;2023-07-28T14:56:12;2.90;;;1.00;;
52512;SDS011;38422;53.172;6.974;2023-07-28T14:58:38;1.23;;;0.80;;
52512;SDS011;38422;53.172;6.974;2023-07-28T15:01:07;2.25;;;1.00;;
52512;SDS011;38422;53.172;6.974;2023-07-28T15:03:35;2.35;;;0.95;;
52512;SDS011;38422;53.172;6.974;2023-07-28T15:06:02;1.88;;;0.90;;
52512;SDS011;38422;53.172;6.974;2023-07-28T15:08:28;1.88;;;0.90;;
52512;SDS011;38422;53.172;6.974;2023-07-28T15:10:55;1.92;;;0.90;;
52512;SDS011;38422;53.172;6.974;2023-07-28T15:13:21;0.93;;;0.70;;
52512;SDS011;38422;53.172;6.974;2023-07-28T15:15:50;2.30;;;0.73;;